Terminal Aerodrome Forecast
Issued by NWS Quad Cities IA IL

Home | Current Version | Previous Version | Graphics & Text | Print | Product List | Glossary On
Versions: 1 2 3 4 5 6 7 8 9 10 11 12 13 14 15 16 17 18 19 20 21 22 23 24 25 26 27 28 29 30 31
000
FTUS43 KDVN 220538
TAFDBQ
TAF
KDBQ 220538Z 2206/2306 VRB03KT 1SM BR BKN025
     FM220730 VRB03KT 1/4SM FG VV002
     FM221200 31004KT 1 1/2SM BR BKN006
     FM221400 33006KT 3SM BR BKN012
     FM221600 34010KT P6SM BKN015=

USA.gov is the U.S. government's official web portal to all federal, state and local government web resources and services.